Time;durP1;ratioP1;P1;durP2;ratioP2;P2;SDS_P1;SDS_P2;PMS_P1;PMS_P2;Temp;Humidity;BMP_temperature;BMP_pressure;BME280_temperature;BME280_humidity;BME280_pressure;Samples;Min_cycle;Max_cycle;Signal;HPM_P1;HPM_P2
2022/07/02 00:01:51;;;;;;;17.45;6.33;;;;;;;24.38;49.10;100948.11;1710308;83;21001;-76
2022/07/02 00:04:29;;;;;;;11.97;5.58;;;;;;;24.11;49.04;100958.15;1713165;83;21531;-74
2022/07/02 00:06:56;;;;;;;12.85;5.83;;;;;;;24.10;48.97;100964.37;1712555;82;21596;-75
2022/07/02 00:09:27;;;;;;;10.53;6.08;;;;;;;24.00;48.68;100963.91;1724166;82;21052;-76
2022/07/02 00:11:58;;;;;;;12.78;5.70;;;;;;;24.00;48.44;100957.82;1716070;84;21039;-75
2022/07/02 00:14:26;;;;;;;13.43;5.97;;;;;;;23.98;48.21;100963.22;1712575;84;21024;-73
2022/07/02 00:16:54;;;;;;;14.28;6.10;;;;;;;24.00;48.10;100961.77;1715170;83;21103;-73
2022/07/02 00:19:22;;;;;;;15.50;5.90;;;;;;;24.00;47.70;100970.97;1712945;83;21023;-74
2022/07/02 00:21:50;;;;;;;12.15;5.97;;;;;;;23.98;47.75;100972.42;1712027;83;21044;-74
2022/07/02 00:24:17;;;;;;;11.53;5.58;;;;;;;23.97;47.80;100973.91;1710257;84;21068;-75
2022/07/02 00:26:52;;;;;;;12.63;5.90;;;;;;;23.83;47.50;100974.37;1712804;83;21012;-74
2022/07/02 00:29:27;;;;;;;12.43;5.35;;;;;;;23.93;47.51;100979.11;1712394;84;21107;-73
2022/07/02 00:31:55;;;;;;;10.30;5.30;;;;;;;23.91;48.01;100984.50;1715123;83;21059;-75
2022/07/02 00:34:25;;;;;;;10.78;5.58;;;;;;;23.84;47.72;100983.89;1710796;84;21235;-74
2022/07/02 00:36:55;;;;;;;13.20;4.95;;;;;;;23.77;47.80;100988.41;1712529;83;21035;-73
2022/07/02 00:39:22;;;;;;;14.00;5.22;;;;;;;23.72;47.96;100992.39;1711168;83;21543;-74
2022/07/02 00:41:51;;;;;;;10.48;5.58;;;;;;;23.62;48.25;101000.29;1712029;84;21001;-73
2022/07/02 00:44:22;;;;;;;9.75;4.50;;;;;;;23.53;48.48;100993.27;1718103;83;21063;-76
2022/07/02 00:46:49;;;;;;;8.85;4.75;;;;;;;23.50;48.76;100993.53;1713260;84;21071;-74
2022/07/02 00:49:17;;;;;;;7.53;4.80;;;;;;;23.36;49.18;100993.00;1714240;83;21504;-74
2022/07/02 00:51:45;;;;;;;8.45;5.05;;;;;;;23.37;49.36;100989.88;1712541;84;21512;-73
2022/07/02 00:54:12;;;;;;;10.35;4.90;;;;;;;23.33;49.63;100989.33;1714355;83;21056;-74
2022/07/02 00:56:39;;;;;;;9.73;4.60;;;;;;;23.26;49.68;101007.12;1708457;83;21012;-74
2022/07/02 00:59:07;;;;;;;14.58;4.72;;;;;;;23.23;49.96;101008.69;1712229;82;21055;-76
2022/07/02 01:01:35;;;;;;;11.03;4.72;;;;;;;23.12;49.71;101010.48;1714092;83;21036;-74
2022/07/02 01:04:04;;;;;;;9.78;4.78;;;;;;;23.05;50.06;101011.16;1711568;83;21032;-74
2022/07/02 01:06:33;;;;;;;10.43;4.65;;;;;;;23.06;50.00;101017.59;1714836;83;21124;-75
2022/07/02 01:11:34;;;;;;;18.20;5.33;;;;;;;23.03;49.87;101024.42;1652494;84;21084;-76
2022/07/02 01:14:04;;;;;;;11.75;5.10;;;;;;;22.92;50.18;101025.34;1711629;83;21513;-73
2022/07/02 01:16:31;;;;;;;11.83;4.33;;;;;;;22.75;50.44;101035.17;1712001;83;21020;-74
2022/07/02 01:18:58;;;;;;;10.05;4.67;;;;;;;22.76;50.29;101032.91;1715606;83;21028;-74
2022/07/02 01:21:25;;;;;;;12.13;5.65;;;;;;;22.65;50.39;101039.56;1715195;83;21484;-76
2022/07/02 01:23:53;;;;;;;15.08;4.85;;;;;;;22.53;50.35;101050.17;1710173;84;21112;-74
2022/07/02 01:26:22;;;;;;;13.78;5.12;;;;;;;22.43;50.59;101055.04;1711508;84;21036;-73
2022/07/02 01:28:49;;;;;;;11.60;4.87;;;;;;;22.44;50.52;101059.30;1723613;82;21094;-76
2022/07/02 01:31:16;;;;;;;12.63;5.20;;;;;;;22.41;50.34;101055.16;1711747;84;21060;-75
2022/07/02 01:33:43;;;;;;;6.85;4.58;;;;;;;22.45;49.82;101068.36;1710234;82;21068;-74
2022/07/02 01:36:10;;;;;;;11.85;4.87;;;;;;;22.35;49.60;101074.88;1713462;83;21040;-75
2022/07/02 01:38:38;;;;;;;11.90;4.60;;;;;;;22.19;48.60;101081.03;1713310;83;21143;-75
2022/07/02 01:43:51;;;;;;;14.15;5.10;;;;;;;22.34;47.76;101074.53;1714437;83;21084;-74
2022/07/02 01:46:19;;;;;;;12.70;5.22;;;;;;;22.20;47.79;101074.81;1717488;83;21043;-73
2022/07/02 01:48:46;;;;;;;11.57;5.10;;;;;;;22.30;47.74;101077.53;1709802;83;21004;-73
2022/07/02 01:51:13;;;;;;;12.00;4.92;;;;;;;21.97;47.83;101080.20;1716400;83;21106;-76
2022/07/02 01:53:40;;;;;;;10.15;5.03;;;;;;;22.11;47.36;101086.91;1713346;84;21552;-73
2022/07/02 01:56:08;;;;;;;9.75;4.80;;;;;;;22.13;47.31;101094.66;1720722;83;21037;-73
2022/07/02 01:58:35;;;;;;;14.43;6.00;;;;;;;22.08;47.37;101094.20;1714704;84;21044;-73
2022/07/02 02:01:03;;;;;;;10.55;4.72;;;;;;;22.05;47.50;101095.30;1712073;84;21060;-74
2022/07/02 02:03:32;;;;;;;14.70;5.08;;;;;;;22.11;47.39;101101.34;1711162;83;21028;-74
2022/07/02 02:05:59;;;;;;;11.65;5.22;;;;;;;22.05;47.92;101093.98;1712146;83;21001;-74
2022/07/02 02:08:28;;;;;;;11.63;5.00;;;;;;;22.05;48.03;101093.16;1713529;83;21123;-73
2022/07/02 02:10:56;;;;;;;10.90;5.28;;;;;;;22.03;48.16;101102.45;1712101;83;21072;-73
2022/07/02 02:13:23;;;;;;;13.75;5.45;;;;;;;21.97;48.01;101106.41;1710579;83;21028;-73
2022/07/02 02:15:50;;;;;;;9.38;5.08;;;;;;;21.84;47.78;101114.95;1711372;83;21040;-74
2022/07/02 02:18:18;;;;;;;10.78;5.08;;;;;;;21.88;47.76;101119.44;1713899;83;21083;-73
2022/07/02 02:20:45;;;;;;;10.00;5.25;;;;;;;21.70;48.59;101117.38;1718689;83;21035;-75
2022/07/02 02:23:13;;;;;;;9.40;5.40;;;;;;;21.63;47.95;101121.45;1716457;83;21075;-74
2022/07/02 02:25:40;;;;;;;10.28;5.42;;;;;;;21.62;47.94;101128.14;1710902;84;21071;-74
2022/07/02 02:28:08;;;;;;;10.15;5.35;;;;;;;21.54;47.96;101129.58;1713817;82;21008;-74
2022/07/02 02:30:35;;;;;;;10.13;5.60;;;;;;;21.46;48.49;101138.53;1706966;84;21072;-74
2022/07/02 02:33:02;;;;;;;13.13;5.45;;;;;;;21.42;48.83;101143.63;1710518;84;21551;-74
2022/07/02 02:35:29;;;;;;;16.17;6.33;;;;;;;21.38;49.21;101144.34;1715743;84;21036;-74
2022/07/02 02:37:56;;;;;;;14.53;6.08;;;;;;;21.40;49.44;101148.98;1712970;84;21008;-73
2022/07/02 02:40:24;;;;;;;16.48;6.08;;;;;;;21.40;49.67;101149.47;1711773;83;21031;-74
2022/07/02 02:42:51;;;;;;;14.98;6.62;;;;;;;21.35;49.92;101159.47;1711450;83;21168;-74
2022/07/02 02:45:18;;;;;;;14.03;5.83;;;;;;;21.32;50.00;101158.42;1721773;83;21023;-74
2022/07/02 02:47:46;;;;;;;14.05;6.17;;;;;;;21.38;50.13;101161.86;1718112;83;21043;-74
2022/07/02 02:50:13;;;;;;;16.75;5.85;;;;;;;21.33;49.47;101162.23;1713145;83;21056;-74
2022/07/02 02:52:40;;;;;;;18.60;6.20;;;;;;;21.39;49.39;101163.50;1712734;83;21099;-76
2022/07/02 02:55:08;;;;;;;13.03;5.65;;;;;;;21.47;48.91;101169.48;1708518;84;21044;-74
2022/07/02 02:57:35;;;;;;;12.58;5.75;;;;;;;21.38;48.10;101171.84;1711308;83;21032;-73
2022/07/02 03:00:04;;;;;;;11.88;5.58;;;;;;;21.56;48.16;101170.89;1710409;83;21516;-75
2022/07/02 03:02:32;;;;;;;11.33;5.67;;;;;;;21.62;48.02;101166.95;1711582;83;21059;-74
2022/07/02 03:04:59;;;;;;;8.68;5.58;;;;;;;21.68;48.54;101171.70;1711755;83;21111;-74
2022/07/02 03:07:27;;;;;;;16.48;5.60;;;;;;;21.79;47.99;101167.72;1711672;84;21608;-74
2022/07/02 03:09:54;;;;;;;13.68;5.62;;;;;;;21.77;47.62;101181.91;1712951;84;20996;-75
2022/07/02 03:12:21;;;;;;;13.05;5.65;;;;;;;21.81;47.12;101181.53;1711048;83;21523;-74
2022/07/02 03:14:48;;;;;;;13.28;5.60;;;;;;;21.86;47.57;101187.73;1711253;83;21464;-75
2022/07/02 03:17:15;;;;;;;11.55;5.45;;;;;;;21.90;47.57;101189.64;1710896;84;21032;-74
2022/07/02 03:19:44;;;;;;;13.90;5.62;;;;;;;21.81;46.94;101197.25;1709578;83;21059;-74
2022/07/02 03:22:11;;;;;;;18.05;6.35;;;;;;;21.85;47.01;101200.47;1711896;84;21040;-74
2022/07/02 03:24:38;;;;;;;15.55;6.50;;;;;;;21.80;47.45;101202.64;1711270;83;21071;-75
2022/07/02 03:27:06;;;;;;;13.25;6.28;;;;;;;21.81;46.66;101209.05;1716676;83;21063;-74
2022/07/02 03:29:34;;;;;;;17.40;6.53;;;;;;;21.77;46.62;101205.50;1716408;83;21076;-75
2022/07/02 03:32:02;;;;;;;13.55;5.90;;;;;;;21.88;46.08;101213.80;1710489;83;21059;-75
2022/07/02 03:34:29;;;;;;;14.95;6.37;;;;;;;21.87;46.49;101210.84;1712220;84;22266;-74
2022/07/02 03:36:56;;;;;;;11.60;6.17;;;;;;;21.69;46.47;101210.03;1711555;83;21509;-74
2022/07/02 03:39:23;;;;;;;15.20;6.35;;;;;;;21.88;46.38;101208.55;1710397;84;21028;-75
2022/07/02 03:41:53;;;;;;;13.00;6.72;;;;;;;21.98;47.06;101210.81;1713244;83;21036;-75
2022/07/02 03:44:21;;;;;;;12.98;6.22;;;;;;;22.01;46.86;101207.44;1712023;83;21559;-74
2022/07/02 03:46:48;;;;;;;12.20;6.30;;;;;;;21.95;46.86;101206.63;1711831;83;21091;-75
2022/07/02 03:49:15;;;;;;;13.30;6.12;;;;;;;21.95;46.69;101201.88;1716312;83;21496;-75
2022/07/02 03:51:42;;;;;;;13.60;5.37;;;;;;;21.76;46.80;101205.98;1713653;83;21008;-75
2022/07/02 03:54:11;;;;;;;16.20;5.87;;;;;;;21.82;46.66;101207.28;1717168;83;21036;-75
2022/07/02 03:56:39;;;;;;;9.63;5.22;;;;;;;21.98;46.69;101211.64;1717645;83;21531;-74
2022/07/02 03:59:06;;;;;;;11.15;4.90;;;;;;;22.10;46.36;101221.61;1718983;83;21127;-74
2022/07/02 04:01:33;;;;;;;10.58;5.47;;;;;;;22.34;46.02;101225.36;1715504;83;21066;-74
2022/07/02 04:04:01;;;;;;;14.25;5.33;;;;;;;22.48;46.13;101229.92;1713321;83;21543;-74
2022/07/02 04:06:28;;;;;;;9.45;5.25;;;;;;;22.55;46.36;101233.23;1712323;84;21079;-75
2022/07/02 04:08:55;;;;;;;14.33;5.03;;;;;;;22.55;45.73;101225.84;1715568;83;21098;-75
2022/07/02 04:11:25;;;;;;;9.50;4.42;;;;;;;22.74;46.09;101225.95;1711422;84;21069;-74
2022/07/02 04:13:52;;;;;;;11.93;4.78;;;;;;;22.66;45.43;101232.81;1712281;83;21115;-75
2022/07/02 04:16:19;;;;;;;11.80;4.83;;;;;;;22.88;45.87;101223.47;1713438;83;21044;-75
2022/07/02 04:18:48;;;;;;;9.60;4.47;;;;;;;22.49;45.33;101230.29;1721799;81;21071;-74
2022/07/02 04:21:15;;;;;;;12.07;5.17;;;;;;;22.45;45.77;101225.77;1713633;83;21083;-75
2022/07/02 04:23:42;;;;;;;9.88;4.47;;;;;;;22.63;45.40;101233.91;1712465;84;21068;-75
2022/07/02 04:26:09;;;;;;;8.48;4.60;;;;;;;22.57;45.31;101235.25;1712919;84;21048;-76
2022/07/02 04:28:37;;;;;;;6.55;4.30;;;;;;;22.68;45.13;101238.27;1711668;84;21047;-75
2022/07/02 04:31:07;;;;;;;9.58;4.12;;;;;;;22.68;44.91;101230.89;1715899;83;21020;-75
2022/07/02 04:33:34;;;;;;;11.63;4.45;;;;;;;22.96;44.72;101227.59;1721633;83;21051;-75
2022/07/02 04:36:03;;;;;;;9.48;4.10;;;;;;;23.00;44.61;101230.30;1712451;83;21040;-72
2022/07/02 04:38:31;;;;;;;7.85;4.40;;;;;;;23.00;44.16;101228.98;1712973;83;21016;-75
2022/07/02 04:40:58;;;;;;;11.90;4.37;;;;;;;22.96;44.47;101220.20;1710914;83;21036;-75
2022/07/02 04:43:25;;;;;;;8.13;3.80;;;;;;;23.03;44.50;101232.34;1713803;83;21024;-76
2022/07/02 04:45:53;;;;;;;6.00;3.60;;;;;;;22.82;44.32;101233.67;1709503;84;21091;-75
2022/07/02 04:48:21;;;;;;;7.12;4.03;;;;;;;23.04;43.80;101236.66;1710503;84;21535;-76
2022/07/02 04:50:49;;;;;;;7.60;4.10;;;;;;;22.73;43.63;101250.55;1713688;84;21068;-77
2022/07/02 04:53:16;;;;;;;7.45;4.30;;;;;;;22.73;43.98;101237.42;1711718;84;21032;-74
2022/07/02 04:55:43;;;;;;;8.90;3.62;;;;;;;22.97;43.34;101231.89;1714713;83;21126;-74
2022/07/02 04:58:11;;;;;;;7.67;3.60;;;;;;;23.01;43.75;101231.13;1713726;84;21008;-74
2022/07/02 05:00:39;;;;;;;11.15;4.20;;;;;;;23.30;43.61;101240.98;1710735;84;21524;-75
2022/07/02 05:03:06;;;;;;;8.60;3.67;;;;;;;23.32;43.01;101238.56;1713115;83;21068;-74
2022/07/02 05:05:33;;;;;;;6.95;4.35;;;;;;;23.37;43.49;101244.23;1713002;83;21063;-77
2022/07/02 05:08:00;;;;;;;6.22;3.80;;;;;;;23.24;43.29;101244.96;1711992;83;21602;-72
2022/07/02 05:10:29;;;;;;;7.45;4.17;;;;;;;23.42;43.06;101243.86;1713620;83;21026;-75
2022/07/02 05:12:56;;;;;;;7.10;3.87;;;;;;;23.38;43.26;101245.91;1714209;84;21191;-74
2022/07/02 05:15:24;;;;;;;10.18;3.72;;;;;;;23.64;43.26;101243.28;1715140;82;21031;-75
2022/07/02 05:17:51;;;;;;;12.03;3.47;;;;;;;23.72;43.47;101242.11;1710130;84;21051;-76
2022/07/02 05:20:19;;;;;;;8.98;3.50;;;;;;;23.67;42.85;101246.47;1712510;83;21087;-75
2022/07/02 05:22:46;;;;;;;8.85;3.87;;;;;;;23.78;42.64;101249.03;1711858;84;21052;-74
2022/07/02 05:25:13;;;;;;;5.95;3.50;;;;;;;23.37;42.51;101251.29;1715101;83;21008;-75
2022/07/02 05:27:41;;;;;;;6.05;3.77;;;;;;;23.57;42.25;101249.07;1712231;83;21036;-77
2022/07/02 05:30:10;;;;;;;6.08;3.52;;;;;;;23.99;41.82;101248.09;1712594;84;21627;-74
2022/07/02 05:32:37;;;;;;;9.43;4.10;;;;;;;24.06;41.45;101245.73;1710778;83;21063;-74
2022/07/02 05:35:05;;;;;;;10.43;4.53;;;;;;;24.14;42.25;101237.48;1710540;84;22094;-76
2022/07/02 05:37:33;;;;;;;9.25;4.95;;;;;;;24.00;41.84;101247.10;1711770;83;21127;-75
2022/07/02 05:40:01;;;;;;;10.38;4.30;;;;;;;23.91;42.06;101241.36;1720385;83;21062;-74
2022/07/02 05:42:28;;;;;;;10.88;4.95;;;;;;;23.90;41.79;101240.52;1712405;84;20996;-75
2022/07/02 05:44:56;;;;;;;10.63;5.70;;;;;;;24.12;41.72;101244.69;1726461;83;21047;-74
2022/07/02 05:47:23;;;;;;;13.43;5.75;;;;;;;24.09;41.83;101244.16;1713084;83;21087;-76
2022/07/02 05:49:50;;;;;;;12.80;5.83;;;;;;;24.05;42.18;101251.48;1714933;83;21040;-74
2022/07/02 05:52:17;;;;;;;12.98;6.45;;;;;;;24.19;42.08;101235.28;1712031;84;21087;-77
2022/07/02 05:54:45;;;;;;;11.43;6.37;;;;;;;23.89;41.67;101231.47;1681472;84;21048;-76
2022/07/02 05:57:14;;;;;;;12.78;6.95;;;;;;;23.85;41.99;101232.22;1681676;84;21612;-74
2022/07/02 05:59:42;;;;;;;12.73;6.45;;;;;;;24.18;41.69;101227.03;1695276;84;21578;-75
2022/07/02 06:02:09;;;;;;;15.63;6.95;;;;;;;24.32;43.01;101238.12;1674735;84;21152;-75
2022/07/02 06:04:37;;;;;;;10.88;5.45;;;;;;;24.50;42.29;101233.02;1684050;85;21030;-74
2022/07/02 06:09:52;;;;;;;8.73;4.30;;;;;;;24.13;41.29;101242.42;1679174;85;21050;-71
2022/07/02 06:12:19;;;;;;;6.47;3.83;;;;;;;24.18;40.85;101234.92;1680665;85;21051;-76
2022/07/02 06:14:46;;;;;;;10.98;3.52;;;;;;;24.34;41.00;101233.55;1674979;84;21125;-75
2022/07/02 06:17:13;;;;;;;8.83;3.72;;;;;;;24.31;40.41;101235.12;1634766;87;21596;-75
2022/07/02 06:19:42;;;;;;;4.17;3.42;;;;;;;24.23;39.91;101242.42;1663160;85;21538;-75
2022/07/02 06:22:10;;;;;;;8.83;3.80;;;;;;;24.72;39.55;101247.66;1639980;86;21090;-75
2022/07/02 06:24:37;;;;;;;7.50;3.83;;;;;;;24.89;40.63;101244.27;1643870;86;21167;-76
2022/07/02 06:27:05;;;;;;;8.78;4.25;;;;;;;24.55;41.59;101236.89;1645090;86;21091;-75
2022/07/02 06:29:33;;;;;;;7.92;4.10;;;;;;;24.78;41.49;101226.84;1650257;86;21548;-76
2022/07/02 06:32:00;;;;;;;11.97;3.62;;;;;;;24.90;41.67;101224.02;1652583;86;21571;-74
2022/07/02 06:34:28;;;;;;;5.83;3.35;;;;;;;25.15;41.04;101223.38;1637533;86;21055;-75
2022/07/02 06:36:55;;;;;;;7.75;3.10;;;;;;;25.23;41.44;101220.55;1650996;86;21091;-76
2022/07/02 06:39:22;;;;;;;5.92;2.80;;;;;;;24.66;40.65;101244.28;1642557;86;21107;-78
2022/07/02 06:44:37;;;;;;;7.28;2.67;;;;;;;24.63;40.10;101241.42;1630508;85;21051;-74
2022/07/02 06:47:05;;;;;;;4.25;2.50;;;;;;;25.00;39.56;101224.85;1641370;86;21059;-76
2022/07/02 06:49:33;;;;;;;4.12;2.50;;;;;;;24.74;38.37;101227.28;1638346;86;21082;-77
2022/07/02 06:52:00;;;;;;;4.17;2.55;;;;;;;25.03;38.28;101232.94;1637725;86;21074;-77
2022/07/02 06:54:28;;;;;;;4.72;2.50;;;;;;;24.88;38.32;101245.26;1643902;86;21133;-77
2022/07/02 06:56:55;;;;;;;5.80;2.50;;;;;;;25.11;38.72;101235.69;1641907;86;21054;-76
2022/07/02 06:59:22;;;;;;;11.20;2.65;;;;;;;24.98;38.59;101241.28;1645931;86;21115;-76
2022/07/02 07:01:49;;;;;;;4.60;2.40;;;;;;;25.05;39.14;101237.08;1641720;85;21110;-75
2022/07/02 07:04:16;;;;;;;6.42;2.50;;;;;;;25.43;39.47;101243.69;1635934;86;21098;-75
2022/07/02 07:06:46;;;;;;;4.58;2.40;;;;;;;25.33;39.76;101238.47;1637516;86;21110;-75
2022/07/02 07:09:12;;;;;;;4.70;2.47;;;;;;;25.42;38.21;101242.02;1654828;85;21146;-75
2022/07/02 07:11:41;;;;;;;4.15;2.80;;;;;;;25.57;38.63;101233.97;1648038;86;21051;-76
2022/07/02 07:14:08;;;;;;;3.83;2.52;;;;;;;25.65;38.46;101244.60;1655593;85;21074;-76
2022/07/02 07:16:36;;;;;;;3.83;2.55;;;;;;;25.58;38.74;101240.89;1665736;84;21491;-75
2022/07/02 07:19:07;;;;;;;7.95;2.58;;;;;;;25.35;38.80;101238.66;1706854;81;21044;-74
2022/07/02 07:21:39;;;;;;;3.08;2.45;;;;;;;25.63;39.28;101236.48;1689286;83;21051;-77
2022/07/02 07:24:08;;;;;;;6.85;2.67;;;;;;;25.33;38.82;101237.97;1680427;83;21606;-75
2022/07/02 07:26:38;;;;;;;5.90;2.50;;;;;;;25.51;38.70;101238.02;1689925;83;21158;-75
2022/07/02 07:29:06;;;;;;;8.35;2.80;;;;;;;25.75;39.56;101235.28;1679605;83;21540;-75
2022/07/02 07:31:36;;;;;;;6.58;2.62;;;;;;;25.95;39.53;101236.87;1674845;83;21088;-77
2022/07/02 07:34:04;;;;;;;5.03;2.60;;;;;;;25.80;39.59;101234.36;1691258;82;21039;-77
2022/07/02 07:36:32;;;;;;;9.30;2.98;;;;;;;25.74;38.11;101228.37;1704110;81;20980;-76
2022/07/02 07:39:01;;;;;;;5.08;2.90;;;;;;;25.58;38.66;101242.20;1699770;83;21592;-74
2022/07/02 07:41:29;;;;;;;8.30;2.98;;;;;;;25.84;38.94;101230.94;1707569;82;20999;-76
2022/07/02 07:43:57;;;;;;;6.08;2.65;;;;;;;25.95;38.34;101231.59;1696203;83;21111;-74
2022/07/02 07:46:24;;;;;;;5.40;2.60;;;;;;;26.18;38.54;101234.58;1669919;84;21102;-79
2022/07/02 07:48:51;;;;;;;5.15;2.58;;;;;;;26.45;37.83;101235.45;1664359;84;21053;-76
2022/07/02 07:51:18;;;;;;;5.75;2.65;;;;;;;26.63;38.30;101237.27;1668370;84;21078;-77
2022/07/02 07:53:46;;;;;;;6.25;2.50;;;;;;;26.28;39.00;101243.74;1694396;82;21066;-75
2022/07/02 07:56:16;;;;;;;9.28;2.47;;;;;;;26.51;38.21;101244.58;1706121;82;21088;-75
2022/07/02 07:58:43;;;;;;;4.87;2.40;;;;;;;26.16;38.26;101244.47;1669606;84;21036;-76
2022/07/02 08:01:11;;;;;;;5.97;2.80;;;;;;;26.12;38.48;101245.75;1681271;82;21028;-73
2022/07/02 08:03:39;;;;;;;4.05;2.72;;;;;;;26.26;39.17;101243.56;1645564;86;21028;-74
2022/07/02 08:06:07;;;;;;;6.37;2.80;;;;;;;26.54;39.13;101245.10;1660094;84;22253;-77
2022/07/02 08:08:36;;;;;;;5.33;2.65;;;;;;;26.38;39.35;101242.34;1674676;83;21048;-75
2022/07/02 08:11:04;;;;;;;6.62;2.60;;;;;;;26.11;39.20;101244.58;1671720;84;21047;-76
2022/07/02 08:13:32;;;;;;;7.45;3.27;;;;;;;26.31;39.02;101245.23;1680639;85;21093;-75
2022/07/02 08:16:01;;;;;;;3.60;2.80;;;;;;;26.52;38.52;101245.75;1676312;85;21058;-74
2022/07/02 08:18:28;;;;;;;5.45;2.60;;;;;;;26.39;38.49;101256.69;1661248;84;21118;-75
2022/07/02 08:20:55;;;;;;;4.10;2.75;;;;;;;26.56;37.77;101252.38;1682215;84;21533;-73
2022/07/02 08:23:23;;;;;;;10.23;2.90;;;;;;;26.36;38.74;101246.95;1684609;84;21142;-76
2022/07/02 08:25:50;;;;;;;10.65;3.02;;;;;;;26.42;38.05;101250.76;1676258;84;21073;-75
2022/07/02 08:28:19;;;;;;;10.13;3.27;;;;;;;26.18;38.01;101254.37;1683624;84;21073;-75
2022/07/02 08:30:46;;;;;;;7.85;3.22;;;;;;;26.67;38.32;101253.95;1671339;85;21052;-74
2022/07/02 08:33:16;;;;;;;8.25;3.37;;;;;;;27.00;37.97;101242.25;1680367;84;21076;-75
2022/07/02 08:35:43;;;;;;;6.95;3.12;;;;;;;26.65;38.80;101255.11;1668128;84;21190;-75
2022/07/02 08:38:11;;;;;;;5.25;3.22;;;;;;;26.81;38.60;101238.53;1660663;84;21091;-76
2022/07/02 08:40:44;;;;;;;8.93;3.08;;;;;;;26.84;38.87;101249.59;1670552;83;21051;-74
2022/07/02 08:43:14;;;;;;;5.33;3.30;;;;;;;27.08;39.65;101242.30;1675828;83;21079;-75
2022/07/02 08:45:42;;;;;;;4.65;2.98;;;;;;;27.17;38.96;101229.47;1692727;83;21666;-77
2022/07/02 08:48:11;;;;;;;7.92;3.10;;;;;;;27.25;37.67;101239.28;1665948;83;21032;-74
2022/07/02 08:50:41;;;;;;;6.75;2.98;;;;;;;27.12;37.54;101241.49;1670592;83;21030;-77
2022/07/02 08:53:08;;;;;;;6.10;2.70;;;;;;;27.50;36.96;101240.19;1667665;83;21063;-78
2022/07/02 08:55:37;;;;;;;5.50;3.10;;;;;;;27.64;37.37;101250.64;1659239;84;21050;-79
2022/07/02 08:58:06;;;;;;;4.58;2.77;;;;;;;27.74;37.47;101236.77;1685038;83;21111;-78
2022/07/02 09:00:33;;;;;;;10.13;3.20;;;;;;;27.43;36.90;101260.81;1682101;83;21057;-80
2022/07/02 09:03:02;;;;;;;6.25;2.90;;;;;;;27.48;35.99;101240.84;1642450;84;20970;-78
2022/07/02 09:05:31;;;;;;;7.17;2.70;;;;;;;27.32;36.36;101256.65;1713415;82;21031;-79
2022/07/02 09:07:59;;;;;;;5.12;2.70;;;;;;;27.41;35.15;101256.17;1677808;84;21103;-79
2022/07/02 09:10:28;;;;;;;10.15;2.85;;;;;;;27.15;35.78;101253.09;1674865;83;21084;-79
2022/07/02 09:12:55;;;;;;;7.85;2.90;;;;;;;27.15;36.33;101244.66;1672043;84;21027;-80
2022/07/02 09:15:24;;;;;;;6.37;2.80;;;;;;;27.55;36.56;101241.02;1677638;83;21005;-76
2022/07/02 09:17:51;;;;;;;5.00;3.00;;;;;;;27.82;36.58;101247.02;1665462;83;21011;-77
2022/07/02 09:20:19;;;;;;;6.03;2.77;;;;;;;27.49;36.37;101253.56;1666635;84;21033;-82
2022/07/02 09:22:50;;;;;;;9.25;2.67;;;;;;;27.29;36.45;101255.62;1681119;83;21002;-77
2022/07/02 09:25:20;;;;;;;6.35;3.50;;;;;;;27.71;36.98;101248.98;1668198;84;21554;-77
2022/07/02 09:27:57;;;;;;;5.42;3.00;;;;;;;28.02;37.14;101244.46;1683936;83;21031;-80
2022/07/02 09:30:28;;;;;;;7.20;2.95;;;;;;;27.84;36.49;101247.22;1648274;84;21079;-76
2022/07/02 09:35:41;;;;;;;8.15;3.42;;;;;;;27.63;35.26;101239.71;1697944;82;21034;-80
2022/07/02 09:38:12;;;;;;;4.12;2.83;;;;;;;27.51;36.07;101258.19;1704990;82;21000;-75
2022/07/02 09:40:54;;;;;;;5.15;2.50;;;;;;;27.74;35.87;101242.06;1665214;83;21551;-77
2022/07/02 09:43:32;;;;;;;8.03;2.40;;;;;;;27.79;35.17;101252.16;1659842;84;21024;-80
2022/07/02 09:46:01;;;;;;;7.10;2.85;;;;;;;27.86;35.35;101243.91;1691190;83;21055;-76
2022/07/02 09:48:29;;;;;;;4.22;2.77;;;;;;;28.10;36.80;101238.32;1692033;83;21019;-76
2022/07/02 09:50:59;;;;;;;6.65;2.90;;;;;;;27.89;35.06;101243.59;1680646;83;21064;-75
2022/07/02 09:53:32;;;;;;;3.87;2.65;;;;;;;27.86;35.72;101239.09;1653950;85;22156;-79
2022/07/02 09:55:56;;;;;;;4.85;2.40;;;;;;;27.75;35.16;101239.73;1651108;85;21607;-78
2022/07/02 09:58:27;;;;;;;7.30;2.70;;;;;;;27.96;35.33;101230.06;1693838;84;21039;-79
2022/07/02 10:00:55;;;;;;;5.37;2.70;;;;;;;27.96;35.75;101235.83;1695328;83;21039;-78
2022/07/02 10:03:23;;;;;;;4.55;2.30;;;;;;;27.92;34.78;101229.20;1656717;83;21060;-79
2022/07/02 10:05:54;;;;;;;6.50;2.92;;;;;;;28.44;33.53;101220.11;1667091;84;21142;-78
2022/07/02 10:08:23;;;;;;;5.50;2.52;;;;;;;28.30;34.65;101213.16;1708634;83;21038;-79
2022/07/02 10:10:50;;;;;;;6.58;3.00;;;;;;;28.25;34.22;101218.66;1707169;82;21059;-80
2022/07/02 10:13:19;;;;;;;5.95;2.85;;;;;;;28.51;35.39;101216.66;1689173;83;21048;-77
2022/07/02 10:16:03;;;;;;;5.87;2.67;;;;;;;28.29;35.94;101222.63;1701916;83;21064;-78
2022/07/02 10:18:31;;;;;;;5.25;2.65;;;;;;;28.41;36.38;101213.81;1709555;83;21107;-74
2022/07/02 10:21:03;;;;;;;3.55;2.40;;;;;;;28.76;34.82;101212.13;1674803;85;21049;-77
2022/07/02 10:23:34;;;;;;;4.67;2.58;;;;;;;28.31;35.49;101213.51;1679561;85;21200;-78
2022/07/02 10:26:01;;;;;;;5.83;2.90;;;;;;;28.23;35.81;101220.13;1647282;86;21128;-77
2022/07/02 10:28:29;;;;;;;7.37;2.72;;;;;;;28.62;35.55;101221.28;1676857;83;21118;-74
2022/07/02 10:30:57;;;;;;;4.25;2.70;;;;;;;28.55;35.18;101217.98;1686068;83;21124;-75
2022/07/02 10:34:03;;;;;;;7.22;2.70;;;;;;;28.37;36.13;101228.73;1675398;83;21069;-73
2022/07/02 10:36:33;;;;;;;6.87;3.00;;;;;;;28.66;36.68;101218.11;1688063;83;21023;-75
2022/07/02 10:39:03;;;;;;;8.10;2.83;;;;;;;28.96;35.64;101229.79;1674151;83;21087;-74
2022/07/02 10:41:32;;;;;;;11.38;3.15;;;;;;;29.02;35.63;101227.47;1681056;83;21051;-76
2022/07/02 10:44:00;;;;;;;18.12;10.63;;;;;;;29.25;35.62;101216.95;1694220;83;21016;-75
2022/07/02 10:46:32;;;;;;;10.50;2.62;;;;;;;29.51;36.22;101221.45;1682266;83;21094;-75
2022/07/02 10:49:00;;;;;;;8.25;2.60;;;;;;;29.04;35.35;101219.66;1701771;82;21548;-76
2022/07/02 10:51:34;;;;;;;4.22;2.30;;;;;;;28.80;35.30;101217.92;1675181;84;21139;-74
2022/07/02 10:54:06;;;;;;;7.90;2.62;;;;;;;28.85;36.61;101218.22;1673272;84;21066;-74
2022/07/02 10:56:49;;;;;;;5.70;2.35;;;;;;;28.95;35.87;101216.22;1671556;83;21073;-74
2022/07/02 10:59:28;;;;;;;3.90;2.80;;;;;;;28.97;36.30;101226.63;1648120;86;21051;-75
2022/07/02 11:02:08;;;;;;;7.92;2.50;;;;;;;28.97;36.30;101226.63;1667372;84;21213;-74
2022/07/02 11:04:36;;;;;;;3.47;2.55;;;;;;;29.54;35.90;101205.20;1667882;84;21086;-75
2022/07/02 11:07:09;;;;;;;7.22;2.95;;;;;;;29.50;35.36;101203.05;1671087;84;21036;-74
2022/07/02 11:09:57;;;;;;;9.08;2.80;;;;;;;29.50;35.36;101203.05;1677791;85;21101;-77
2022/07/02 11:12:49;;;;;;;4.60;2.70;;;;;;;29.37;34.47;101207.60;1677081;84;21081;-75
2022/07/02 11:15:27;;;;;;;6.80;2.55;;;;;;;29.31;35.06;101203.81;1673396;84;21072;-75
2022/07/02 11:17:57;;;;;;;8.60;2.67;;;;;;;29.42;35.67;101208.40;1676254;84;21039;-75
2022/07/02 11:20:28;;;;;;;4.87;2.20;;;;;;;29.58;35.06;101199.52;1655818;84;21154;-75
2022/07/02 11:22:55;;;;;;;4.50;2.25;;;;;;;29.58;35.06;101199.52;1649413;84;21064;-76
2022/07/02 11:25:23;;;;;;;6.10;3.33;;;;;;;29.08;35.02;101207.72;1675667;84;21095;-74
2022/07/02 11:27:58;;;;;;;8.20;3.77;;;;;;;28.96;34.81;101199.81;1692049;83;21111;-76
2022/07/02 11:30:28;;;;;;;5.12;2.90;;;;;;;29.69;35.72;101190.66;1684163;85;21544;-74
2022/07/02 11:32:56;;;;;;;8.55;2.85;;;;;;;29.69;35.72;101190.66;1683276;84;21071;-73
2022/07/02 11:35:24;;;;;;;5.15;2.58;;;;;;;29.84;35.12;101192.57;1684490;84;21067;-75
2022/07/02 11:37:57;;;;;;;9.30;3.00;;;;;;;29.66;36.11;101207.42;1667891;83;21107;-75
2022/07/02 11:40:26;;;;;;;5.30;3.40;;;;;;;29.72;35.86;101202.26;1653651;84;22176;-75
2022/07/02 11:42:53;;;;;;;5.28;2.83;;;;;;;29.86;34.57;101202.50;1670536;84;21125;-75